Impacts TAF Board
For situational awareness. Not to be used for flight planning purposes.
IDs:

KMCB - McComb/Lewis Fld, MS, US

Issued at 1535 UTC 23 Sep 2020
Updated at 1554 UTC 23 Sep 2020
Potential Impact None Slight Moderate High
Time1537Z 23/16Z 23/17Z 23/18Z 23/19Z 23/20Z 23/21Z 23/22Z 23/23Z 24/00Z 24/01Z 24/02Z 24/03Z 24/04Z>>
Type OBS PRVL
  [TEMP]  
PRVL PRVL PRVL PRVL PRVL PRVL PRVL PRVL PRVL PRVL PRVL PRVL
VIS 4 >6
  [2]  
>6 >6 >6 >6 5 5 5 5 5 5 5 3
CIG 32 10
  [10]  
10 10 10 10 20 20 20 10 10 10 10 3
Cover OVC BKN
  [BKN]  
BKN BKN BKN BKN BKN BKN BKN OVC OVC OVC OVC OVC
FltCat MVFR MVFR
  [IFR]  
MVFR MVFR MVFR MVFR MVFR MVFR MVFR MVFR MVFR MVFR MVFR LIFR
WX -RA BR VCSH
  [+RA]  
VCSH VCSH VCSH VCSH -SHRA BR VCTS -SHRA BR VCTS -SHRA BR VCTS SHRA BR SHRA BR SHRA BR SHRA BR SHRA BR
WDir 120 120
[110]
120 120 120 120 120 120 120 110 110 110 110 140
WSpd 7 9
  [6]  
9 9 9 9 9 9 9 7 7 7 7 10
WGst -- --
  [--]  
-- -- -- -- -- -- -- -- -- -- -- --
R15/33
XWnd 4 5 5 5 5 5 5 5 5 5 5 5 5 3
XGst -- 0 -- -- -- -- -- -- -- -- -- -- -- --
HWnd 6 7 7 7 7 7 7 7 7 5 5 5 5 10
HGst -- 0 -- -- -- -- -- -- -- -- -- -- -- --
Raw TAF
KMCB 231535Z 2316/2412 12009KT P6SM VCSH BKN010
  TEMPO 2316/2317 11006KT 2SM +RA BKN010
  FM232100 12009KT 5SM -SHRA BR VCTS BKN020CB
  FM240000 11007KT 5SM SHRA BR OVC010
  FM240400 14010KT 3SM SHRA BR OVC003


Raw METAR
KMCB 231537Z AUTO 12007KT 4SM -RA BR SCT009 BKN032 OVC070 21/21 A2993 RMK AO2 P0011 T02110206
KMCB 231532Z AUTO VRB06KT 2SM RA BR SCT011 BKN038 OVC090 21/21 A2993 RMK AO2 P0011 T02110206
KMCB 231529Z AUTO 11006KT 1 3/4SM +RA BR BKN011 BKN032 OVC085 21/20 A2993 RMK AO2 P0010 T02110200
KMCB 231453Z AUTO 12006KT 8SM -RA OVC008 21/20 A2995 RMK AO2 RAB24 SLP136 P0000 60000 T02110200 53009
KMCB 231353Z AUTO 12006KT 10SM OVC007 21/19 A2993 RMK AO2 RAE06 SLP131 P0000 T02060194
KMCB 231253Z AUTO 11005KT 10SM -RA OVC008 21/19 A2994 RMK AO2 RAB50 SLP132 P0000 T02060189

METAR Board
Radar Display
Forecast Discussion
For situational awareness. Not to be used for flight planning purposes.